Terminal Aerodrome Forecast
Issued by NWS Sterling, VA

Current Version | Previous Version | Text Only | Print | Product List | Glossary Off
Versions: 1 2 3 4 5 6 7 8 9 10 11 12 13 14 15 16

744
FTUS41 KLWX 232320
TAFMRB
TAF
KMRB 232320Z 2400/2424 34007KT P6SM FEW090
     FM240400 VRB03KT P6SM FEW090
     FM241500 34005KT P6SM BKN050
     FM242300 VRB03KT P6SM BKN050=

USA.gov is the U.S. government's official web portal to all federal, state and local government web resources and services.